Mossel Bay, South Africa

5:05 PM SAST on August 27, 2016 (GMT +0200)
Mossel Bay Extension 7 | | Change Station

Elev 0 ft 34.18 °S, 22.12 °E | Updated 30 seconds ago

Clear
Clear
62.1 °F
Feels Like 62.1 °F
N
0.6
Wind Variable Wind from SSE
Gusts 1.9 mph

Today
High -- | Low -- °F
--% Chance of Precip.
Yesterday
High -- | Low -- °F
Precip. -- in
Pressure 30.01 in
Visibility -9999.0 miles
Clouds
Dew Point 58 °F
Humidity 87%
Rainfall 0.00 in
Snow Depth Not available.
6:56 AM 6:10 PM
Waning Crescent, 24% visible
METAR FAGG 271500Z 11006KT CAVOK 24/12 Q1016
Pressure 30.01 in
Visibility -9999.0 miles
Clouds
Dew Point 58 °F
Humidity 87%
Rainfall 0.00 in
Snow Depth Not available.
6:56 AM 6:10 PM
Waning Crescent, 24% visible
METAR FAGG 271500Z 11006KT CAVOK 24/12 Q1016

10-Day Weather Forecast

No radar image for this location.
×

Almanac

Astronomy

Aug. 27, 2016 Rise Set
Actual Time
Civil Twilight
Nautical Twilight
Astronomical Twilight
Moon
Length of Visible Light
Length of Day
Tomorrow will be .
, % of the Moon is Illuminated

Today's Extremes

Country Highs Country Lows

Community

WunderPhotos

Upload Photos

1,935,354 photos uploaded!

WunderBlog® & News

Nearby

Air Quality

  Air Quality AQ Index Pollutant
Not available.

Snow Depth

Station Depth Elevation

Earthquake Activity

City Distance Mag. Time & Date
Minimum magnitude displayed is 2.5.

Coastal Water Temperatures

Place Temperature

Stations

Nearby Weather Stations

Station Location Temp. Windchill Dew Point Humidity Wind Precip. Elev Updated Type